ADDS METAR Data INFO
IDs: Format: Raw Decoded Include TAF

Data at: 0921 UTC 13 Dec 2017

KABI 130852Z AUTO 19007KT 10SM CLR 03/M07 A3013 RMK AO2 SLP201 T00281067 56023
KABI 130752Z 19006KT 10SM CLR 03/M07 A3015 RMK AO2 SLP208 T00281067
KABI 130652Z 20007KT 10SM CLR 02/M07 A3017 RMK AO2 SLP215 T00221067
KABI 130552Z 19008KT 10SM CLR 02/M06 A3020 RMK AO2 SLP228 T00221061 10100 20017 401330000 56019
KABI 130452Z 19008KT 10SM CLR 02/M06 A3022 RMK AO2 SLP234 T00171061
KABI 130352Z 20006KT 10SM CLR 02/M06 A3024 RMK AO2 SLP242 T00171056
KABI 130252Z 19006KT 10SM CLR 02/M06 A3026 RMK AO2 SLP251 T00171056 58010
KABI 130152Z 18006KT 10SM CLR 03/M06 A3027 RMK AO2 SLP257 T00331056
KABI 130052Z 19004KT 10SM CLR 07/M06 A3028 RMK AO2 SLP256 T00671056
KABI 122352Z 00000KT 10SM CLR 10/M06 A3029 RMK AO2 SLP257 T01001061 10133 20089 56021
KABI 122252Z 31006KT 10SM CLR 12/M06 A3030 RMK AO2 SLP260 T01171056
KABI 122152Z 00000KT 10SM CLR 13/M06 A3033 RMK AO2 SLP268 T01281056
KABI 122052Z 33007KT 10SM CLR 13/M06 A3036 RMK AO2 SLP276 T01281056 56037
KABI 121952Z VRB04KT 10SM CLR 12/M04 A3038 RMK AO2 SLP287 T01171039
KABI 121852Z 01007KT 10SM CLR 11/M03 A3042 RMK AO2 SLP301 T01061028
KABI 121752Z 35007KT 10SM CLR 09/M03 A3047 RMK AO2 SLP315 T00891028 10094 20000 58003
KABI 121652Z 01009KT 10SM CLR 08/M03 A3049 RMK AO2 SLP324 T00781028
KABI 121552Z 36010KT 10SM CLR 06/M04 A3050 RMK AO2 SLP325 T00611039
KABI 121452Z 33006KT 10SM CLR 04/M05 A3048 RMK AO2 SLP322 T00391050 51019
KABI 121352Z 32004KT 10SM CLR 01/M07 A3046 RMK AO2 SLP316 T00061067
KABI 121252Z 35007KT 10SM CLR 02/M06 A3044 RMK AO2 SLP307 T00171061
KABI 121152Z 35005KT 10SM CLR 02/M06 A3042 RMK AO2 SLP296 T00221061 10083 20006 53015
KABI 121052Z 36007KT 10SM CLR 03/M07 A3040 RMK AO2 SLP287 T00281072
KABI 120952Z 36008KT 10SM CLR 03/M08 A3039 RMK AO2 SLP282 T00331078
KABI 120852Z 36008KT 10SM CLR 04/M08 A3037 RMK AO2 SLP276 T00441078 53022
KABI 120752Z 36006KT 10SM CLR 05/M07 A3035 RMK AO2 SLP267 T00501072
KABI 120652Z 35006KT 10SM CLR 06/M07 A3033 RMK AO2 SLP259 T00611067
KABI 120552Z 34004KT 10SM CLR 08/M07 A3031 RMK AO2 SLP252 T00831067 10183 20067 402330033 53014
KABI 120452Z 00000KT 10SM CLR 07/M06 A3029 RMK AO2 SLP249 T00721061
KABI 120352Z 33006KT 10SM CLR 10/M06 A3026 RMK AO2 SLP241 T01001061
KABI 120252Z 02008KT 10SM CLR 09/M06 A3026 RMK AO2 PRESRR SLP245 T00891056 53026
KABI 120152Z 20004KT 10SM CLR 11/M07 A3022 RMK AO2 SLP230 T01111067
KABI 120052Z 20007KT 10SM CLR 13/M08 A3020 RMK AO2 SLP223 T01331078
KABI 112352Z 26004KT 10SM CLR 18/M09 A3018 RMK AO2 SLP213 T01831094 10233 20172 53005
KABI 112252Z 25008KT 10SM CLR 21/M10 A3016 RMK AO2 SLP205 T02111100
KABI 112152Z 26011KT 10SM CLR 23/M12 A3016 RMK AO2 SLP203 T02331117